Pagrindinis puslapis
METAR-TAF:

METAR-TAF

Oro uostai :

Cachimbo, Para, Brazilija

platuma: 09-20S, ilguma: 054-57W, Aukštis: 536 m

Dabartinis oras

Ataskaita buvo paskelbta 10 valandos ir 5 minutes, ne 19:00 UTC
Vėjas 6 kt iš Šiaurės Rytų
Temperatūra 26°C
Drėgmė 65%
Slėgis 1014 hPa
Matomumas 10 km arba daugiau
Su prošvaistėmis ne aukštis 4000 ft

METAR: SBCC 281900Z 04006KT 9999 BKN040 26/19 Q1014

Laikas: 02:05 (05:05 UTC)


TAF: trūkstamas

Orai ataskaitas ir orų prognozės (METAR, TAF).

turimą stotys yra geltonos ir raudonos taškus žemėlapyje.

Perkelti pele per norėdami pamatyti stoties vardą.

Tada spustelėkite, norėdami matyti oro stebėjimo ir prognozės.

Norėdami pakeisti žemėlapį: spustelėkite ant žalios mygtukų su juodo kryžiaus žemyn,; žalią mygtuką su brūkšneliu, jei norite nutolinti; arba žalių rodyklių gretimoms žemėlapius.


METAR-TAF: